Callison, South Carolina
Current Conditions -  °F | °C
As of 12:18 PM on Sunday 23 Nov 2014 (Local Time) from KGRD Reporting Station
Moderate Rain Moderate Rain  
Wind Chill: 50°   Ceiling: 300
Heat Index: 50°   Visibility: 2mi
Dew Point: 49°   Wind: 8mph
Humidity: 96%   Direction: 40°NE
Pressure: 30.02"   Gusts: NA
Location:  34.036°N, 82.2186°W
Report Text: KGRD 231718Z AUTO 04007KT 2SM RA BR OVC003 10/09 A3002 RMK AO2 CIG 002V008 P0003 T01000094
Loading
Personal Weather Stations






























Interactive Weather Map New forecast layout! Learn more

10-Day Weather Forecast

Advertisements
Track Severe Weather on mobile